W23 weather

Wild Rose Idlewild Airport
Wild Rose, Wisconsin, United States

Public forecast

Using degrees Fahrenheit for public forecast. Weather courtesy of forecast.io.

Closest aviation weather report (METAR) to Wild Rose Idlewild Airport

Closest report is Wautoma Municipal Airport, 10.1 nm (18.7 km) SSW. Retrieved 2019/10/14 16:31 UTC (7 minutes ago):

KY50 141631Z AUTO 27007KT 10SM BKN017 BKN022 06/01 A3005 RMK AO2

Closest aviation forecast (TAF) to Wild Rose Idlewild Airport

Closest forecast is Appleton International Airport, 30.3 nm (56.1 km) E. Retrieved 2019/10/14 13:36 UTC (3 hours ago):

TAF KATW 141333Z 1413/1512 27008KT P6SM SKC TEMPO 1413/1415 BKN005 FM141600 26009G15KT P6SM SCT030 FM142100 24004KT P6SM SCT040 FM150400 VRB03KT P6SM SCT250 FM151000 15003KT P6SM BKN070